KSAT/SAT METAR and TAF weather

Enter ICAO airport designator
Station Type Date Time Source
KSAT METAR 2018/01/23 00:51 UTC NOAA

KSAT 230051Z 33006KT 10SM FEW250 13/M07 A3013 RMK AO2 SLP195 T01281072 $


Station Type Date Time Source
KSAT Decoded METAR 2018/01/23 00:51 UTC NOAA

SAN ANTONIO INTERNATIONAL AIRPORT , TX, United States (KSAT) 29-32N 098-28W 243M
Jan 22, 2018 - 07:51 PM EST / 2018.01.23 0051 UTC
Wind: from the NNW (330 degrees) at 7 MPH (6 KT):0
Visibility: 10 mile(s):0
Sky conditions: mostly clear
Temperature: 55.0 F (12.8 C)
Dew Point: 19.0 F (-7.2 C)
Relative Humidity: 24%
Pressure (altimeter): 30.13 in. Hg (1020 hPa)
ob: KSAT 230051Z 33006KT 10SM FEW250 13/M07 A3013 RMK AO2 SLP195 T01281072
cycle: 1

Station Type Date Time Source
KSAT TAF 2018/01/22 18:22 UTC NOAA

TAF KSAT 221720Z 2218/2324 33012G22KT P6SM FEW250
FM230000 32005KT P6SM FEW250


Example: see airport list